sensor_id;sensor_type;location;lat;lon;timestamp;P1;durP1;ratioP1;P2;durP2;ratioP2
69280;SDS011;56392;51.082;17.080;2023-04-26T00:05:33;10.70;;;3.10;;
69280;SDS011;56392;51.082;17.080;2023-04-26T00:10:57;11.30;;;2.90;;
69280;SDS011;56392;51.082;17.080;2023-04-26T00:16:21;11.90;;;2.92;;
69280;SDS011;56392;51.082;17.080;2023-04-26T00:21:45;10.60;;;3.17;;
69280;SDS011;56392;51.082;17.080;2023-04-26T00:27:08;9.67;;;3.30;;
69280;SDS011;56392;51.082;17.080;2023-04-26T00:32:31;12.07;;;3.30;;
69280;SDS011;56392;51.082;17.080;2023-04-26T00:37:57;10.25;;;3.20;;
69280;SDS011;56392;51.082;17.080;2023-04-26T00:43:20;14.43;;;3.67;;
69280;SDS011;56392;51.082;17.080;2023-04-26T00:48:43;11.13;;;3.83;;
69280;SDS011;56392;51.082;17.080;2023-04-26T00:54:07;15.82;;;4.45;;
69280;SDS011;56392;51.082;17.080;2023-04-26T00:59:31;11.80;;;3.47;;
69280;SDS011;56392;51.082;17.080;2023-04-26T01:04:55;16.70;;;3.60;;
69280;SDS011;56392;51.082;17.080;2023-04-26T01:10:20;13.40;;;3.38;;
69280;SDS011;56392;51.082;17.080;2023-04-26T01:15:43;11.80;;;3.40;;
69280;SDS011;56392;51.082;17.080;2023-04-26T01:21:07;15.37;;;3.10;;
69280;SDS011;56392;51.082;17.080;2023-04-26T01:26:33;11.43;;;3.20;;
69280;SDS011;56392;51.082;17.080;2023-04-26T01:31:56;12.35;;;3.20;;
69280;SDS011;56392;51.082;17.080;2023-04-26T01:37:19;11.13;;;3.10;;
69280;SDS011;56392;51.082;17.080;2023-04-26T01:42:43;10.57;;;3.27;;
69280;SDS011;56392;51.082;17.080;2023-04-26T01:48:06;9.65;;;2.95;;
69280;SDS011;56392;51.082;17.080;2023-04-26T01:53:29;13.65;;;3.08;;
69280;SDS011;56392;51.082;17.080;2023-04-26T01:58:54;10.07;;;2.90;;
69280;SDS011;56392;51.082;17.080;2023-04-26T02:04:17;12.98;;;3.40;;
69280;SDS011;56392;51.082;17.080;2023-04-26T02:09:40;8.63;;;2.90;;
69280;SDS011;56392;51.082;17.080;2023-04-26T02:15:06;9.97;;;3.33;;
69280;SDS011;56392;51.082;17.080;2023-04-26T02:20:30;10.52;;;3.22;;
69280;SDS011;56392;51.082;17.080;2023-04-26T02:25:53;11.32;;;3.17;;
69280;SDS011;56392;51.082;17.080;2023-04-26T02:31:18;12.00;;;3.60;;
69280;SDS011;56392;51.082;17.080;2023-04-26T02:36:41;12.33;;;3.23;;
69280;SDS011;56392;51.082;17.080;2023-04-26T02:42:07;10.40;;;3.75;;
69280;SDS011;56392;51.082;17.080;2023-04-26T02:47:31;13.32;;;3.45;;
69280;SDS011;56392;51.082;17.080;2023-04-26T02:52:57;11.43;;;3.40;;
69280;SDS011;56392;51.082;17.080;2023-04-26T02:58:20;13.90;;;3.60;;
69280;SDS011;56392;51.082;17.080;2023-04-26T03:03:44;10.80;;;3.50;;
69280;SDS011;56392;51.082;17.080;2023-04-26T03:09:07;11.07;;;3.30;;
69280;SDS011;56392;51.082;17.080;2023-04-26T03:14:31;10.13;;;2.90;;
69280;SDS011;56392;51.082;17.080;2023-04-26T03:19:55;7.88;;;2.97;;
69280;SDS011;56392;51.082;17.080;2023-04-26T03:25:18;10.27;;;2.80;;
69280;SDS011;56392;51.082;17.080;2023-04-26T03:30:41;10.33;;;2.43;;
69280;SDS011;56392;51.082;17.080;2023-04-26T03:36:06;9.95;;;2.72;;
69280;SDS011;56392;51.082;17.080;2023-04-26T03:41:29;12.18;;;2.60;;
69280;SDS011;56392;51.082;17.080;2023-04-26T03:46:53;10.80;;;2.80;;
69280;SDS011;56392;51.082;17.080;2023-04-26T03:52:18;10.52;;;2.42;;
69280;SDS011;56392;51.082;17.080;2023-04-26T03:57:41;8.93;;;2.28;;
69280;SDS011;56392;51.082;17.080;2023-04-26T04:03:05;10.60;;;2.57;;
69280;SDS011;56392;51.082;17.080;2023-04-26T04:08:30;10.90;;;2.38;;
69280;SDS011;56392;51.082;17.080;2023-04-26T04:13:53;8.88;;;2.50;;
69280;SDS011;56392;51.082;17.080;2023-04-26T04:19:16;7.10;;;2.07;;
69280;SDS011;56392;51.082;17.080;2023-04-26T04:24:41;7.83;;;2.10;;
69280;SDS011;56392;51.082;17.080;2023-04-26T04:30:04;9.52;;;2.20;;
69280;SDS011;56392;51.082;17.080;2023-04-26T04:35:29;8.57;;;2.30;;
69280;SDS011;56392;51.082;17.080;2023-04-26T04:40:55;10.73;;;2.23;;
69280;SDS011;56392;51.082;17.080;2023-04-26T04:46:18;7.78;;;1.95;;
69280;SDS011;56392;51.082;17.080;2023-04-26T04:51:42;10.10;;;2.10;;
69280;SDS011;56392;51.082;17.080;2023-04-26T04:57:06;8.40;;;1.90;;
69280;SDS011;56392;51.082;17.080;2023-04-26T05:02:29;7.78;;;2.10;;
69280;SDS011;56392;51.082;17.080;2023-04-26T05:07:54;11.40;;;2.00;;
69280;SDS011;56392;51.082;17.080;2023-04-26T05:13:30;8.93;;;1.80;;
69280;SDS011;56392;51.082;17.080;2023-04-26T05:18:54;9.67;;;1.80;;
69280;SDS011;56392;51.082;17.080;2023-04-26T05:24:17;11.10;;;2.17;;
69280;SDS011;56392;51.082;17.080;2023-04-26T05:29:41;8.02;;;1.80;;
69280;SDS011;56392;51.082;17.080;2023-04-26T05:35:05;7.53;;;1.60;;
69280;SDS011;56392;51.082;17.080;2023-04-26T05:40:29;10.30;;;1.77;;
69280;SDS011;56392;51.082;17.080;2023-04-26T05:45:54;9.93;;;1.50;;
69280;SDS011;56392;51.082;17.080;2023-04-26T05:51:19;7.80;;;1.40;;
69280;SDS011;56392;51.082;17.080;2023-04-26T05:56:42;8.33;;;1.67;;
69280;SDS011;56392;51.082;17.080;2023-04-26T06:02:06;8.00;;;1.50;;
69280;SDS011;56392;51.082;17.080;2023-04-26T06:07:29;9.77;;;1.60;;
69280;SDS011;56392;51.082;17.080;2023-04-26T06:12:53;9.50;;;1.70;;
69280;SDS011;56392;51.082;17.080;2023-04-26T06:18:17;11.73;;;1.30;;
69280;SDS011;56392;51.082;17.080;2023-04-26T06:23:40;9.90;;;1.52;;
69280;SDS011;56392;51.082;17.080;2023-04-26T06:29:03;8.73;;;1.50;;
69280;SDS011;56392;51.082;17.080;2023-04-26T06:34:28;9.57;;;1.60;;
69280;SDS011;56392;51.082;17.080;2023-04-26T06:39:51;9.45;;;1.48;;
69280;SDS011;56392;51.082;17.080;2023-04-26T06:45:14;8.20;;;1.35;;
69280;SDS011;56392;51.082;17.080;2023-04-26T06:50:39;10.47;;;1.60;;
69280;SDS011;56392;51.082;17.080;2023-04-26T06:56:02;9.90;;;1.45;;
69280;SDS011;56392;51.082;17.080;2023-04-26T07:01:25;8.52;;;1.60;;
69280;SDS011;56392;51.082;17.080;2023-04-26T07:06:51;7.83;;;1.60;;
69280;SDS011;56392;51.082;17.080;2023-04-26T07:12:14;9.77;;;1.50;;
69280;SDS011;56392;51.082;17.080;2023-04-26T07:17:37;8.50;;;1.30;;
69280;SDS011;56392;51.082;17.080;2023-04-26T07:23:01;10.65;;;1.10;;
69280;SDS011;56392;51.082;17.080;2023-04-26T07:28:24;6.47;;;1.20;;
69280;SDS011;56392;51.082;17.080;2023-04-26T07:33:48;9.07;;;1.50;;
69280;SDS011;56392;51.082;17.080;2023-04-26T07:39:12;11.80;;;1.10;;
69280;SDS011;56392;51.082;17.080;2023-04-26T07:44:36;7.43;;;0.90;;
69280;SDS011;56392;51.082;17.080;2023-04-26T07:49:59;6.70;;;0.95;;
69280;SDS011;56392;51.082;17.080;2023-04-26T07:55:24;7.30;;;0.90;;
69280;SDS011;56392;51.082;17.080;2023-04-26T08:00:47;7.80;;;1.00;;
69280;SDS011;56392;51.082;17.080;2023-04-26T08:06:10;9.27;;;1.00;;
69280;SDS011;56392;51.082;17.080;2023-04-26T08:11:35;9.40;;;0.90;;
69280;SDS011;56392;51.082;17.080;2023-04-26T08:16:58;7.78;;;1.13;;
69280;SDS011;56392;51.082;17.080;2023-04-26T08:22:22;4.43;;;0.77;;
69280;SDS011;56392;51.082;17.080;2023-04-26T08:27:46;7.18;;;1.02;;
69280;SDS011;56392;51.082;17.080;2023-04-26T08:33:09;6.38;;;1.15;;
69280;SDS011;56392;51.082;17.080;2023-04-26T08:38:32;6.57;;;0.97;;
69280;SDS011;56392;51.082;17.080;2023-04-26T08:43:57;5.68;;;1.05;;
69280;SDS011;56392;51.082;17.080;2023-04-26T08:49:25;7.00;;;0.90;;
69280;SDS011;56392;51.082;17.080;2023-04-26T08:54:56;7.67;;;1.00;;
69280;SDS011;56392;51.082;17.080;2023-04-26T09:00:21;9.53;;;1.20;;
69280;SDS011;56392;51.082;17.080;2023-04-26T09:05:45;5.50;;;0.70;;
69280;SDS011;56392;51.082;17.080;2023-04-26T09:11:08;6.20;;;0.93;;
69280;SDS011;56392;51.082;17.080;2023-04-26T09:16:35;6.00;;;0.90;;
69280;SDS011;56392;51.082;17.080;2023-04-26T09:21:58;8.85;;;0.90;;
69280;SDS011;56392;51.082;17.080;2023-04-26T09:27:21;8.20;;;0.90;;
69280;SDS011;56392;51.082;17.080;2023-04-26T09:32:56;7.10;;;1.00;;
69280;SDS011;56392;51.082;17.080;2023-04-26T09:38:19;9.05;;;1.23;;
69280;SDS011;56392;51.082;17.080;2023-04-26T09:43:42;8.15;;;1.05;;
69280;SDS011;56392;51.082;17.080;2023-04-26T09:49:07;8.93;;;1.10;;
69280;SDS011;56392;51.082;17.080;2023-04-26T09:54:37;7.27;;;1.00;;
69280;SDS011;56392;51.082;17.080;2023-04-26T10:00:05;7.60;;;1.35;;
69280;SDS011;56392;51.082;17.080;2023-04-26T10:05:34;6.53;;;1.00;;
69280;SDS011;56392;51.082;17.080;2023-04-26T10:10:58;6.60;;;1.10;;
69280;SDS011;56392;51.082;17.080;2023-04-26T10:16:22;8.70;;;0.80;;
69280;SDS011;56392;51.082;17.080;2023-04-26T10:21:47;6.53;;;1.00;;
69280;SDS011;56392;51.082;17.080;2023-04-26T10:27:15;5.13;;;0.90;;
69280;SDS011;56392;51.082;17.080;2023-04-26T10:38:39;4.72;;;0.70;;
69280;SDS011;56392;51.082;17.080;2023-04-26T10:50:03;5.40;;;1.27;;
69280;SDS011;56392;51.082;17.080;2023-04-26T10:55:38;6.85;;;1.00;;
69280;SDS011;56392;51.082;17.080;2023-04-26T11:01:05;8.43;;;0.98;;
69280;SDS011;56392;51.082;17.080;2023-04-26T11:06:45;5.33;;;0.73;;
69280;SDS011;56392;51.082;17.080;2023-04-26T11:12:12;4.60;;;0.82;;
69280;SDS011;56392;51.082;17.080;2023-04-26T11:17:36;5.93;;;0.93;;
69280;SDS011;56392;51.082;17.080;2023-04-26T11:22:59;5.67;;;0.90;;
69280;SDS011;56392;51.082;17.080;2023-04-26T11:28:24;4.72;;;1.10;;
69280;SDS011;56392;51.082;17.080;2023-04-26T11:33:47;5.80;;;1.05;;
69280;SDS011;56392;51.082;17.080;2023-04-26T11:39:10;9.17;;;1.20;;
69280;SDS011;56392;51.082;17.080;2023-04-26T11:44:35;6.30;;;1.00;;
69280;SDS011;56392;51.082;17.080;2023-04-26T11:49:59;7.63;;;1.05;;
69280;SDS011;56392;51.082;17.080;2023-04-26T11:55:26;6.97;;;1.08;;
69280;SDS011;56392;51.082;17.080;2023-04-26T12:00:55;4.30;;;0.93;;
69280;SDS011;56392;51.082;17.080;2023-04-26T12:06:20;6.25;;;1.00;;
69280;SDS011;56392;51.082;17.080;2023-04-26T12:11:55;5.30;;;0.90;;
69280;SDS011;56392;51.082;17.080;2023-04-26T12:17:22;7.33;;;0.90;;
69280;SDS011;56392;51.082;17.080;2023-04-26T12:22:55;6.53;;;1.00;;
69280;SDS011;56392;51.082;17.080;2023-04-26T12:28:20;6.57;;;1.02;;
69280;SDS011;56392;51.082;17.080;2023-04-26T12:33:46;6.20;;;1.00;;
69280;SDS011;56392;51.082;17.080;2023-04-26T12:39:09;9.60;;;1.10;;
69280;SDS011;56392;51.082;17.080;2023-04-26T12:44:33;5.55;;;0.90;;
69280;SDS011;56392;51.082;17.080;2023-04-26T12:49:58;8.07;;;1.20;;
69280;SDS011;56392;51.082;17.080;2023-04-26T12:55:22;8.13;;;1.27;;
69280;SDS011;56392;51.082;17.080;2023-04-26T13:00:45;5.03;;;0.95;;
69280;SDS011;56392;51.082;17.080;2023-04-26T13:06:09;7.53;;;0.90;;
69280;SDS011;56392;51.082;17.080;2023-04-26T13:11:33;6.93;;;1.00;;
69280;SDS011;56392;51.082;17.080;2023-04-26T13:16:56;6.55;;;0.95;;
69280;SDS011;56392;51.082;17.080;2023-04-26T13:22:20;7.63;;;0.80;;
69280;SDS011;56392;51.082;17.080;2023-04-26T13:27:44;4.33;;;0.80;;
69280;SDS011;56392;51.082;17.080;2023-04-26T13:33:07;5.57;;;0.83;;
69280;SDS011;56392;51.082;17.080;2023-04-26T13:38:31;6.97;;;0.90;;
69280;SDS011;56392;51.082;17.080;2023-04-26T13:43:54;6.25;;;1.10;;
69280;SDS011;56392;51.082;17.080;2023-04-26T13:49:17;3.70;;;0.70;;
69280;SDS011;56392;51.082;17.080;2023-04-26T13:54:43;7.90;;;1.60;;
69280;SDS011;56392;51.082;17.080;2023-04-26T14:00:07;5.93;;;1.00;;
69280;SDS011;56392;51.082;17.080;2023-04-26T14:05:32;7.43;;;1.20;;
69280;SDS011;56392;51.082;17.080;2023-04-26T14:10:56;6.47;;;0.98;;
69280;SDS011;56392;51.082;17.080;2023-04-26T14:16:20;7.20;;;1.13;;
69280;SDS011;56392;51.082;17.080;2023-04-26T14:21:44;10.00;;;1.23;;
69280;SDS011;56392;51.082;17.080;2023-04-26T14:27:08;7.73;;;1.00;;
69280;SDS011;56392;51.082;17.080;2023-04-26T14:32:32;5.03;;;0.90;;
69280;SDS011;56392;51.082;17.080;2023-04-26T14:37:55;5.35;;;0.90;;
69280;SDS011;56392;51.082;17.080;2023-04-26T14:43:20;11.37;;;1.07;;
69280;SDS011;56392;51.082;17.080;2023-04-26T14:48:45;6.28;;;1.17;;
69280;SDS011;56392;51.082;17.080;2023-04-26T14:54:08;5.95;;;1.15;;
69280;SDS011;56392;51.082;17.080;2023-04-26T14:59:33;6.83;;;1.10;;
69280;SDS011;56392;51.082;17.080;2023-04-26T15:04:57;7.13;;;1.50;;
69280;SDS011;56392;51.082;17.080;2023-04-26T15:10:20;7.03;;;1.20;;
69280;SDS011;56392;51.082;17.080;2023-04-26T15:15:44;8.20;;;1.47;;
69280;SDS011;56392;51.082;17.080;2023-04-26T15:21:07;11.23;;;1.37;;
69280;SDS011;56392;51.082;17.080;2023-04-26T15:26:31;6.97;;;1.17;;
69280;SDS011;56392;51.082;17.080;2023-04-26T15:31:55;9.07;;;1.20;;
69280;SDS011;56392;51.082;17.080;2023-04-26T15:37:18;5.27;;;1.00;;
69280;SDS011;56392;51.082;17.080;2023-04-26T15:42:42;6.80;;;1.20;;
69280;SDS011;56392;51.082;17.080;2023-04-26T15:48:06;9.45;;;1.83;;
69280;SDS011;56392;51.082;17.080;2023-04-26T15:53:30;6.93;;;1.30;;
69280;SDS011;56392;51.082;17.080;2023-04-26T15:58:53;6.35;;;1.08;;
69280;SDS011;56392;51.082;17.080;2023-04-26T16:04:19;4.85;;;1.00;;
69280;SDS011;56392;51.082;17.080;2023-04-26T16:09:43;5.97;;;1.10;;
69280;SDS011;56392;51.082;17.080;2023-04-26T16:15:09;8.57;;;1.40;;
69280;SDS011;56392;51.082;17.080;2023-04-26T16:20:34;5.55;;;1.00;;
69280;SDS011;56392;51.082;17.080;2023-04-26T16:25:57;6.75;;;1.20;;
69280;SDS011;56392;51.082;17.080;2023-04-26T16:31:23;6.93;;;1.27;;
69280;SDS011;56392;51.082;17.080;2023-04-26T16:36:48;6.35;;;1.38;;
69280;SDS011;56392;51.082;17.080;2023-04-26T16:42:11;6.57;;;1.42;;
69280;SDS011;56392;51.082;17.080;2023-04-26T16:47:34;7.43;;;1.23;;
69280;SDS011;56392;51.082;17.080;2023-04-26T16:52:58;8.35;;;1.20;;
69280;SDS011;56392;51.082;17.080;2023-04-26T16:58:21;5.25;;;1.00;;
69280;SDS011;56392;51.082;17.080;2023-04-26T17:03:44;5.30;;;1.03;;
69280;SDS011;56392;51.082;17.080;2023-04-26T17:09:10;6.97;;;1.10;;
69280;SDS011;56392;51.082;17.080;2023-04-26T17:14:33;5.70;;;1.10;;
69280;SDS011;56392;51.082;17.080;2023-04-26T17:19:56;6.55;;;1.38;;
69280;SDS011;56392;51.082;17.080;2023-04-26T17:25:21;6.50;;;1.20;;
69280;SDS011;56392;51.082;17.080;2023-04-26T17:30:44;8.32;;;1.40;;
69280;SDS011;56392;51.082;17.080;2023-04-26T17:36:07;7.40;;;1.50;;
69280;SDS011;56392;51.082;17.080;2023-04-26T17:41:32;6.10;;;1.50;;
69280;SDS011;56392;51.082;17.080;2023-04-26T17:46:55;7.40;;;1.20;;
69280;SDS011;56392;51.082;17.080;2023-04-26T17:52:18;7.00;;;1.40;;
69280;SDS011;56392;51.082;17.080;2023-04-26T17:57:43;6.47;;;1.30;;
69280;SDS011;56392;51.082;17.080;2023-04-26T18:03:07;7.57;;;1.40;;
69280;SDS011;56392;51.082;17.080;2023-04-26T18:08:32;6.22;;;1.42;;
69280;SDS011;56392;51.082;17.080;2023-04-26T18:13:57;7.70;;;1.60;;
69280;SDS011;56392;51.082;17.080;2023-04-26T18:19:20;9.17;;;1.87;;
69280;SDS011;56392;51.082;17.080;2023-04-26T18:24:43;8.77;;;1.85;;
69280;SDS011;56392;51.082;17.080;2023-04-26T18:30:09;10.20;;;2.28;;
69280;SDS011;56392;51.082;17.080;2023-04-26T18:35:33;10.17;;;2.50;;
69280;SDS011;56392;51.082;17.080;2023-04-26T18:40:57;11.23;;;2.33;;
69280;SDS011;56392;51.082;17.080;2023-04-26T18:46:21;8.88;;;2.45;;
69280;SDS011;56392;51.082;17.080;2023-04-26T18:51:45;8.10;;;2.20;;
69280;SDS011;56392;51.082;17.080;2023-04-26T18:57:08;21.63;;;10.37;;
69280;SDS011;56392;51.082;17.080;2023-04-26T19:02:33;10.43;;;3.13;;
69280;SDS011;56392;51.082;17.080;2023-04-26T19:08:00;7.97;;;2.05;;
69280;SDS011;56392;51.082;17.080;2023-04-26T19:13:23;7.93;;;2.07;;
69280;SDS011;56392;51.082;17.080;2023-04-26T19:18:47;8.38;;;2.65;;
69280;SDS011;56392;51.082;17.080;2023-04-26T19:24:10;8.70;;;2.10;;
69280;SDS011;56392;51.082;17.080;2023-04-26T19:29:34;8.83;;;2.17;;
69280;SDS011;56392;51.082;17.080;2023-04-26T19:34:58;7.97;;;2.38;;
69280;SDS011;56392;51.082;17.080;2023-04-26T19:40:21;10.60;;;2.40;;
69280;SDS011;56392;51.082;17.080;2023-04-26T19:45:45;7.93;;;2.33;;
69280;SDS011;56392;51.082;17.080;2023-04-26T19:51:14;11.17;;;2.70;;
69280;SDS011;56392;51.082;17.080;2023-04-26T19:56:38;9.75;;;2.60;;
69280;SDS011;56392;51.082;17.080;2023-04-26T20:02:01;10.18;;;2.78;;
69280;SDS011;56392;51.082;17.080;2023-04-26T20:07:28;9.67;;;2.97;;
69280;SDS011;56392;51.082;17.080;2023-04-26T20:12:52;13.40;;;3.35;;
69280;SDS011;56392;51.082;17.080;2023-04-26T20:18:15;11.68;;;3.70;;
69280;SDS011;56392;51.082;17.080;2023-04-26T20:23:40;10.03;;;3.40;;
69280;SDS011;56392;51.082;17.080;2023-04-26T20:29:03;10.25;;;3.25;;
69280;SDS011;56392;51.082;17.080;2023-04-26T20:34:26;16.40;;;3.70;;
69280;SDS011;56392;51.082;17.080;2023-04-26T20:39:53;14.30;;;3.07;;
69280;SDS011;56392;51.082;17.080;2023-04-26T20:45:16;9.13;;;3.27;;
69280;SDS011;56392;51.082;17.080;2023-04-26T20:50:39;11.63;;;3.72;;
69280;SDS011;56392;51.082;17.080;2023-04-26T20:56:04;11.65;;;3.35;;
69280;SDS011;56392;51.082;17.080;2023-04-26T21:01:29;13.03;;;3.07;;
69280;SDS011;56392;51.082;17.080;2023-04-26T21:06:52;9.23;;;3.05;;
69280;SDS011;56392;51.082;17.080;2023-04-26T21:12:16;11.50;;;3.00;;
69280;SDS011;56392;51.082;17.080;2023-04-26T21:17:41;9.63;;;3.00;;
69280;SDS011;56392;51.082;17.080;2023-04-26T21:23:05;13.27;;;3.10;;
69280;SDS011;56392;51.082;17.080;2023-04-26T21:28:32;13.10;;;4.22;;
69280;SDS011;56392;51.082;17.080;2023-04-26T21:33:55;10.13;;;2.93;;
69280;SDS011;56392;51.082;17.080;2023-04-26T21:39:18;19.53;;;10.27;;
69280;SDS011;56392;51.082;17.080;2023-04-26T21:44:43;11.95;;;4.10;;
69280;SDS011;56392;51.082;17.080;2023-04-26T21:50:06;12.63;;;4.07;;
69280;SDS011;56392;51.082;17.080;2023-04-26T21:55:29;12.73;;;3.83;;
69280;SDS011;56392;51.082;17.080;2023-04-26T22:00:54;13.43;;;4.30;;
69280;SDS011;56392;51.082;17.080;2023-04-26T22:06:17;11.80;;;4.43;;
69280;SDS011;56392;51.082;17.080;2023-04-26T22:11:40;12.73;;;4.77;;
69280;SDS011;56392;51.082;17.080;2023-04-26T22:17:05;15.65;;;5.10;;
69280;SDS011;56392;51.082;17.080;2023-04-26T22:22:28;16.55;;;5.35;;
69280;SDS011;56392;51.082;17.080;2023-04-26T22:27:51;11.80;;;5.00;;
69280;SDS011;56392;51.082;17.080;2023-04-26T22:33:16;13.47;;;4.90;;
69280;SDS011;56392;51.082;17.080;2023-04-26T22:38:39;14.13;;;5.20;;
69280;SDS011;56392;51.082;17.080;2023-04-26T22:44:02;14.90;;;4.75;;
69280;SDS011;56392;51.082;17.080;2023-04-26T22:49:28;13.33;;;5.07;;
69280;SDS011;56392;51.082;17.080;2023-04-26T22:54:51;13.38;;;5.32;;
69280;SDS011;56392;51.082;17.080;2023-04-26T23:00:14;14.65;;;4.95;;
69280;SDS011;56392;51.082;17.080;2023-04-26T23:05:39;12.67;;;5.10;;
69280;SDS011;56392;51.082;17.080;2023-04-26T23:11:05;13.75;;;5.43;;
69280;SDS011;56392;51.082;17.080;2023-04-26T23:16:28;13.65;;;5.15;;
69280;SDS011;56392;51.082;17.080;2023-04-26T23:21:55;15.67;;;4.80;;
69280;SDS011;56392;51.082;17.080;2023-04-26T23:27:18;16.07;;;4.90;;
69280;SDS011;56392;51.082;17.080;2023-04-26T23:32:41;12.98;;;5.18;;
69280;SDS011;56392;51.082;17.080;2023-04-26T23:38:06;12.45;;;5.15;;
69280;SDS011;56392;51.082;17.080;2023-04-26T23:43:29;14.37;;;4.93;;
69280;SDS011;56392;51.082;17.080;2023-04-26T23:48:52;13.15;;;4.65;;
69280;SDS011;56392;51.082;17.080;2023-04-26T23:54:16;14.48;;;5.00;;
69280;SDS011;56392;51.082;17.080;2023-04-26T23:59:42;16.30;;;5.40;;
